Time;durP1;ratioP1;P1;durP2;ratioP2;P2;SDS_P1;SDS_P2;PMS_P1;PMS_P2;Temp;Humidity;BMP_temperature;BMP_pressure;BME280_temperature;BME280_humidity;BME280_pressure;Samples;Min_cycle;Max_cycle;Signal;HPM_P1;HPM_P2
2021/05/10 00:01:11;;;;;;;0.40;0.40;;;18.50;86.60;;;;;;4415394;32;20075;-64
2021/05/10 00:03:36;;;;;;;0.32;0.32;;;18.50;86.70;;;;;;4414068;32;20065;-65
2021/05/10 00:06:02;;;;;;;0.30;0.30;;;18.50;87.60;;;;;;4415067;32;20061;-65
2021/05/10 00:08:28;;;;;;;0.20;0.20;;;18.40;88.00;;;;;;4413101;32;20058;-64
2021/05/10 00:10:55;;;;;;;0.30;0.30;;;18.30;87.60;;;;;;4414739;32;20475;-63
2021/05/10 00:13:22;;;;;;;2.72;1.37;;;18.20;87.80;;;;;;4386323;32;20067;-64
2021/05/10 00:15:48;;;;;;;0.50;0.50;;;18.20;88.30;;;;;;4398675;32;20058;-64
2021/05/10 00:18:14;;;;;;;0.40;0.40;;;18.10;88.20;;;;;;4397590;32;20050;-65
2021/05/10 00:20:42;;;;;;;0.37;0.37;;;18.10;89.30;;;;;;4385987;32;20058;-64
2021/05/10 00:23:09;;;;;;;0.80;0.32;;;18.10;88.30;;;;;;4398356;32;20069;-64
2021/05/10 00:25:36;;;;;;;0.30;0.30;;;18.10;88.10;;;;;;4399945;32;20062;-64
2021/05/10 00:28:03;;;;;;;1.08;0.62;;;18.10;87.90;;;;;;4400237;32;20114;-64
2021/05/10 00:30:29;;;;;;;0.32;0.30;;;18.10;87.60;;;;;;4398072;32;20074;-64
2021/05/10 00:32:55;;;;;;;0.30;0.30;;;18.00;87.90;;;;;;4398461;32;20058;-64
2021/05/10 00:35:22;;;;;;;0.30;0.30;;;18.00;88.30;;;;;;4397067;32;20066;-64
2021/05/10 00:37:47;;;;;;;0.32;0.32;;;17.90;88.20;;;;;;4398918;32;20066;-65
2021/05/10 00:40:14;;;;;;;0.30;0.30;;;17.90;87.90;;;;;;4397651;32;20425;-63
2021/05/10 00:42:40;;;;;;;0.85;0.62;;;17.90;88.00;;;;;;4398164;32;20120;-65
2021/05/10 00:45:07;;;;;;;7.25;0.82;;;17.80;88.40;;;;;;4397943;32;20457;-65
2021/05/10 00:47:33;;;;;;;0.30;0.30;;;17.80;88.50;;;;;;4399946;32;20078;-64
2021/05/10 00:49:58;;;;;;;0.40;0.40;;;17.90;88.10;;;;;;4398098;32;20483;-64
2021/05/10 00:52:24;;;;;;;0.40;0.40;;;17.80;88.20;;;;;;4398748;32;20611;-65
2021/05/10 00:54:50;;;;;;;0.32;0.30;;;17.80;88.50;;;;;;4409650;32;20069;-64
2021/05/10 00:57:17;;;;;;;0.43;0.30;;;17.80;88.40;;;;;;4413538;32;20062;-64
2021/05/10 00:59:42;;;;;;;0.25;0.25;;;17.70;88.40;;;;;;4413656;32;20061;-64
2021/05/10 01:02:08;;;;;;;0.30;0.25;;;17.80;88.50;;;;;;4413127;32;20535;-64
2021/05/10 01:04:33;;;;;;;0.45;0.45;;;17.80;88.40;;;;;;4414110;32;20123;-65
2021/05/10 01:06:59;;;;;;;5.93;0.37;;;17.70;88.40;;;;;;4412762;32;20408;-65
2021/05/10 01:09:26;;;;;;;0.50;0.50;;;17.70;88.20;;;;;;4414924;32;20598;-65
2021/05/10 01:11:52;;;;;;;0.43;0.43;;;17.70;88.20;;;;;;4406762;32;20070;-64
2021/05/10 01:14:17;;;;;;;0.90;0.47;;;17.70;88.10;;;;;;4397785;32;20062;-64
2021/05/10 01:16:43;;;;;;;0.50;0.50;;;17.70;89.10;;;;;;4398372;32;20058;-64
2021/05/10 01:19:09;;;;;;;0.70;0.70;;;17.60;89.30;;;;;;4397442;32;20125;-64
2021/05/10 01:21:35;;;;;;;0.32;0.32;;;17.50;89.60;;;;;;4398037;32;20532;-63
2021/05/10 01:24:01;;;;;;;0.30;0.30;;;17.50;89.90;;;;;;4397734;32;20074;-64
2021/05/10 01:26:27;;;;;;;0.20;0.20;;;17.50;90.30;;;;;;4398084;32;20070;-63
2021/05/10 01:28:53;;;;;;;0.30;0.30;;;17.40;90.40;;;;;;4398389;32;20073;-64
2021/05/10 01:31:19;;;;;;;0.30;0.30;;;17.30;90.50;;;;;;4398220;32;20121;-64
2021/05/10 01:33:44;;;;;;;0.70;0.70;;;17.30;90.70;;;;;;4398118;32;20082;-64
2021/05/10 01:36:10;;;;;;;0.32;0.32;;;17.30;90.80;;;;;;4398948;32;20066;-65
2021/05/10 01:38:36;;;;;;;0.28;0.28;;;17.20;90.60;;;;;;4385039;32;20077;-63
2021/05/10 01:41:01;;;;;;;0.40;0.40;;;17.20;91.10;;;;;;4398293;32;20437;-65
2021/05/10 01:43:27;;;;;;;5.35;1.17;;;17.10;91.90;;;;;;4385646;32;20121;-64
2021/05/10 01:45:52;;;;;;;0.30;0.30;;;17.00;93.30;;;;;;4397832;32;20110;-64
2021/05/10 01:48:18;;;;;;;0.50;0.50;;;16.90;93.50;;;;;;4397912;32;20062;-66
2021/05/10 01:50:47;;;;;;;0.30;0.30;;;16.90;94.60;;;;;;4399134;32;20076;-64
2021/05/10 01:53:14;;;;;;;0.30;0.30;;;16.80;93.90;;;;;;4401532;32;20082;-64
2021/05/10 01:55:40;;;;;;;0.30;0.30;;;16.70;94.10;;;;;;4412258;32;20087;-63
2021/05/10 01:58:08;;;;;;;0.32;0.32;;;16.70;93.30;;;;;;4400340;32;20065;-64
2021/05/10 02:00:37;;;;;;;0.30;0.30;;;16.80;95.50;;;;;;4412384;32;20101;-63
2021/05/10 02:03:05;;;;;;;0.50;0.50;;;16.70;96.40;;;;;;4413837;32;20515;-62
2021/05/10 02:05:31;;;;;;;0.30;0.30;;;16.60;97.20;;;;;;4414742;32;20054;-65
2021/05/10 02:07:59;;;;;;;0.28;0.28;;;16.50;97.60;;;;;;4402673;32;20100;-64
2021/05/10 02:10:30;;;;;;;1.15;0.40;;;16.40;97.30;;;;;;4414713;32;20058;-65
2021/05/10 02:12:59;;;;;;;0.68;0.68;;;16.40;98.90;;;;;;4401746;32;20062;-63
2021/05/10 02:15:29;;;;;;;0.55;0.55;;;16.30;99.60;;;;;;4386533;32;20071;-64
2021/05/10 02:17:55;;;;;;;0.52;0.37;;;16.20;99.90;;;;;;4387242;32;20065;-64
2021/05/10 02:20:22;;;;;;;0.30;0.30;;;16.20;99.90;;;;;;4399445;32;20058;-63
2021/05/10 02:22:51;;;;;;;0.20;0.20;;;16.20;99.90;;;;;;4400663;32;20110;-63
2021/05/10 02:25:19;;;;;;;3.62;1.33;;;16.20;99.50;;;;;;4399729;32;20062;-65
2021/05/10 02:27:45;;;;;;;0.30;0.30;;;16.20;99.90;;;;;;4387564;32;20069;-64
2021/05/10 02:30:11;;;;;;;3.05;0.55;;;16.10;99.90;;;;;;4399722;32;20440;-64
2021/05/10 02:32:36;;;;;;;0.25;0.25;;;16.00;99.90;;;;;;4400694;32;20070;-64
2021/05/10 02:35:02;;;;;;;0.30;0.30;;;16.00;99.90;;;;;;4401817;32;20071;-64
2021/05/10 02:37:27;;;;;;;1.75;1.05;;;15.90;99.90;;;;;;4399086;32;20128;-64
2021/05/10 02:39:53;;;;;;;0.40;0.40;;;15.90;99.90;;;;;;4400812;32;20074;-62
2021/05/10 02:42:18;;;;;;;0.25;0.25;;;15.90;99.90;;;;;;4400498;32;20113;-64
2021/05/10 02:44:44;;;;;;;0.82;0.73;;;15.90;99.90;;;;;;4400907;32;20098;-64
2021/05/10 02:47:09;;;;;;;0.30;0.30;;;15.90;99.90;;;;;;4399632;32;20090;-64
2021/05/10 02:49:35;;;;;;;0.30;0.30;;;15.80;99.90;;;;;;4400564;32;20054;-64
2021/05/10 02:52:00;;;;;;;0.35;0.35;;;15.80;99.90;;;;;;4399202;32;20548;-64
2021/05/10 02:54:26;;;;;;;0.40;0.40;;;15.80;99.90;;;;;;4400906;32;20058;-65
2021/05/10 02:56:51;;;;;;;2.03;0.70;;;15.80;99.90;;;;;;4401322;32;20062;-66
2021/05/10 02:59:16;;;;;;;0.40;0.40;;;15.80;99.90;;;;;;4399730;32;20074;-63
2021/05/10 03:01:42;;;;;;;0.20;0.20;;;15.80;99.90;;;;;;4399535;32;20082;-64
2021/05/10 03:04:07;;;;;;;6.30;0.55;;;15.70;99.90;;;;;;4400484;32;20121;-64
2021/05/10 03:06:33;;;;;;;0.43;0.43;;;15.90;99.90;;;;;;4400503;32;20121;-64
2021/05/10 03:08:58;;;;;;;0.47;0.47;;;15.90;99.90;;;;;;4400496;32;20121;-65
2021/05/10 03:11:24;;;;;;;0.30;0.30;;;15.90;99.90;;;;;;4404439;32;20070;-64
2021/05/10 03:13:49;;;;;;;0.40;0.40;;;15.80;99.90;;;;;;4415129;32;20061;-64
2021/05/10 03:16:15;;;;;;;0.28;0.28;;;15.70;99.90;;;;;;4415005;32;20069;-64
2021/05/10 03:18:40;;;;;;;0.77;0.68;;;15.60;99.90;;;;;;4413522;32;20073;-64
2021/05/10 03:21:06;;;;;;;0.75;0.57;;;15.60;99.90;;;;;;4414257;32;20069;-64
2021/05/10 03:23:31;;;;;;;0.30;0.30;;;15.50;99.90;;;;;;4415542;32;20074;-64
2021/05/10 03:25:57;;;;;;;0.30;0.30;;;15.50;99.90;;;;;;4414625;32;20153;-64
2021/05/10 03:28:23;;;;;;;0.20;0.20;;;15.30;99.90;;;;;;4414466;32;20066;-64
2021/05/10 03:30:48;;;;;;;0.30;0.30;;;15.30;99.90;;;;;;4414537;32;20112;-64
2021/05/10 03:33:14;;;;;;;0.47;0.47;;;15.30;99.90;;;;;;4415692;32;20065;-62
2021/05/10 03:35:40;;;;;;;0.30;0.30;;;15.40;99.90;;;;;;4415290;32;20057;-64
2021/05/10 03:38:05;;;;;;;8.57;1.45;;;15.40;99.90;;;;;;4414201;32;20065;-65
2021/05/10 03:40:31;;;;;;;0.37;0.37;;;15.30;99.90;;;;;;4415224;32;20113;-64
2021/05/10 03:42:57;;;;;;;0.30;0.30;;;15.30;99.90;;;;;;4415421;32;20116;-63
2021/05/10 03:45:22;;;;;;;0.30;0.30;;;15.30;99.90;;;;;;4414422;32;20421;-63
2021/05/10 03:47:48;;;;;;;0.30;0.30;;;15.40;99.90;;;;;;4414230;32;20070;-65
2021/05/10 03:50:16;;;;;;;0.30;0.30;;;15.40;99.90;;;;;;4414363;32;20082;-65
2021/05/10 03:52:43;;;;;;;0.45;0.32;;;15.40;99.90;;;;;;4412927;32;20117;-64
2021/05/10 03:55:10;;;;;;;0.30;0.30;;;15.40;99.90;;;;;;4400615;32;20062;-64
2021/05/10 03:57:36;;;;;;;0.30;0.30;;;15.40;99.90;;;;;;4398289;32;20062;-64
2021/05/10 04:00:04;;;;;;;0.40;0.40;;;15.40;99.90;;;;;;4411214;32;20124;-64
2021/05/10 04:02:30;;;;;;;0.50;0.50;;;15.40;99.90;;;;;;4414160;32;20070;-64
2021/05/10 04:05:10;;;;;;;0.40;0.40;;;15.50;99.90;;;;;;4414177;32;20615;-64
2021/05/10 04:07:42;;;;;;;4.25;1.25;;;15.60;99.90;;;;;;4414281;32;20128;-64
2021/05/10 04:11:12;;;;;;;0.30;0.30;;;15.60;99.90;;;;;;4414188;32;20069;-64
2021/05/10 04:13:56;;;;;;;0.22;0.22;;;15.50;99.90;;;;;;4412917;32;20074;-63
2021/05/10 04:15:39;;;;;;;0.30;0.30;;;15.60;99.90;;;;;;4413120;32;20515;-65
2021/05/10 04:18:05;;;;;;;0.28;0.28;;;15.60;99.90;;;;;;4414355;32;20419;-65
2021/05/10 04:20:30;;;;;;;0.40;0.40;;;15.60;99.90;;;;;;4413627;32;20078;-64
2021/05/10 04:22:56;;;;;;;0.25;0.25;;;15.70;99.90;;;;;;4407246;32;20062;-63
2021/05/10 04:25:21;;;;;;;0.32;0.32;;;15.70;99.90;;;;;;4411637;32;20109;-65
2021/05/10 04:27:48;;;;;;;2.28;0.95;;;15.80;99.90;;;;;;4412064;32;20103;-63
2021/05/10 04:30:14;;;;;;;0.30;0.30;;;15.80;99.90;;;;;;4412124;32;20104;-63
2021/05/10 04:32:40;;;;;;;0.40;0.40;;;15.90;99.60;;;;;;4412413;32;20133;-64
2021/05/10 04:35:06;;;;;;;0.30;0.30;;;16.00;99.30;;;;;;4413647;32;20065;-64
2021/05/10 04:37:31;;;;;;;0.30;0.30;;;16.10;99.50;;;;;;4413661;32;20083;-64
2021/05/10 04:39:57;;;;;;;0.50;0.50;;;16.20;98.70;;;;;;4410724;32;20074;-65
2021/05/10 04:42:22;;;;;;;0.40;0.40;;;16.30;98.20;;;;;;4397457;32;20532;-65
2021/05/10 04:44:49;;;;;;;0.25;0.25;;;16.40;98.50;;;;;;4398169;32;20078;-64
2021/05/10 04:47:14;;;;;;;0.30;0.30;;;16.50;98.20;;;;;;4398746;32;20058;-64
2021/05/10 04:49:40;;;;;;;0.30;0.30;;;16.50;97.60;;;;;;4397414;32;20062;-64
2021/05/10 04:52:05;;;;;;;0.25;0.25;;;16.60;97.30;;;;;;4398377;32;20083;-65
2021/05/10 04:54:31;;;;;;;0.20;0.20;;;16.60;97.30;;;;;;4398564;32;20502;-65
2021/05/10 04:56:56;;;;;;;0.40;0.40;;;16.60;97.00;;;;;;4405298;32;20096;-63
2021/05/10 04:59:22;;;;;;;3.72;1.33;;;16.70;97.20;;;;;;4399543;32;20488;-64
2021/05/10 05:01:47;;;;;;;0.28;0.28;;;16.70;96.90;;;;;;4400018;32;20090;-64
2021/05/10 05:04:13;;;;;;;0.30;0.30;;;16.70;96.10;;;;;;4409985;32;20070;-64
2021/05/10 05:06:38;;;;;;;0.32;0.32;;;16.80;96.20;;;;;;4399148;32;20077;-64
2021/05/10 05:09:04;;;;;;;0.50;0.50;;;16.80;95.70;;;;;;4399051;32;20117;-63
2021/05/10 05:11:29;;;;;;;0.40;0.40;;;16.70;95.50;;;;;;4407202;32;20459;-64
2021/05/10 05:13:55;;;;;;;0.37;0.37;;;16.70;95.60;;;;;;4411097;32;20082;-64
2021/05/10 05:16:20;;;;;;;0.68;0.65;;;16.80;95.40;;;;;;4399769;32;20101;-64
2021/05/10 05:18:46;;;;;;;0.30;0.30;;;16.90;95.70;;;;;;4388346;32;20074;-63
2021/05/10 05:21:11;;;;;;;0.25;0.25;;;17.00;95.60;;;;;;4405613;32;20058;-65
2021/05/10 05:23:37;;;;;;;0.30;0.30;;;17.00;94.90;;;;;;4406722;32;20085;-65
2021/05/10 05:26:04;;;;;;;0.40;0.40;;;17.10;95.00;;;;;;4402702;32;20413;-64
2021/05/10 05:28:32;;;;;;;0.32;0.32;;;17.10;94.80;;;;;;4393303;32;20094;-63
2021/05/10 05:30:59;;;;;;;0.20;0.20;;;17.10;94.70;;;;;;4391541;32;20958;-64
2021/05/10 05:33:25;;;;;;;0.47;0.47;;;17.10;94.60;;;;;;4380228;32;20399;-64
2021/05/10 05:35:52;;;;;;;0.20;0.20;;;17.20;94.80;;;;;;4404590;32;20085;-64
2021/05/10 05:38:18;;;;;;;0.40;0.40;;;17.30;95.40;;;;;;4399809;32;20066;-64
2021/05/10 05:40:44;;;;;;;5.47;1.83;;;17.40;94.00;;;;;;4410080;32;20689;-64
2021/05/10 05:43:10;;;;;;;1.20;0.40;;;17.30;94.50;;;;;;4409547;32;20073;-64
2021/05/10 05:45:38;;;;;;;0.40;0.40;;;17.30;94.80;;;;;;4404563;32;20694;-64
2021/05/10 05:48:05;;;;;;;0.25;0.25;;;17.30;94.50;;;;;;4396898;32;20059;-65
2021/05/10 05:50:34;;;;;;;0.30;0.30;;;17.30;94.40;;;;;;4404108;32;20121;-63
2021/05/10 05:53:00;;;;;;;0.60;0.50;;;17.40;94.00;;;;;;4409115;32;20090;-65
2021/05/10 05:55:27;;;;;;;0.30;0.30;;;17.40;93.80;;;;;;4409098;32;20092;-65
2021/05/10 05:57:52;;;;;;;0.80;0.80;;;17.40;93.90;;;;;;4408566;32;20082;-65
2021/05/10 06:00:18;;;;;;;0.30;0.30;;;17.40;93.90;;;;;;4407859;32;20106;-65
2021/05/10 06:02:44;;;;;;;0.30;0.30;;;17.50;94.70;;;;;;4403184;32;20073;-63
2021/05/10 06:05:10;;;;;;;0.35;0.35;;;17.50;94.20;;;;;;4408202;32;20108;-64
2021/05/10 06:07:40;;;;;;;0.30;0.30;;;17.50;94.40;;;;;;4407485;32;20519;-64
2021/05/10 06:10:06;;;;;;;0.20;0.20;;;17.50;93.90;;;;;;4404446;32;20530;-64
2021/05/10 06:12:32;;;;;;;1.30;0.82;;;17.60;93.90;;;;;;4406310;32;20079;-64
2021/05/10 06:14:57;;;;;;;0.30;0.30;;;17.50;94.10;;;;;;4408541;32;20093;-64
2021/05/10 06:17:23;;;;;;;0.50;0.50;;;17.50;94.20;;;;;;4410837;32;20412;-63
2021/05/10 06:19:48;;;;;;;0.22;0.22;;;17.70;94.10;;;;;;4408265;32;20054;-64
2021/05/10 06:22:15;;;;;;;1.08;0.43;;;17.70;94.20;;;;;;4404459;32;20125;-65
2021/05/10 06:24:40;;;;;;;0.30;0.30;;;17.70;94.10;;;;;;4407852;32;20053;-65
2021/05/10 06:27:06;;;;;;;0.32;0.32;;;17.80;94.20;;;;;;4406747;32;20133;-65
2021/05/10 06:29:31;;;;;;;1.48;0.40;;;17.80;93.90;;;;;;4408217;32;20136;-65
2021/05/10 06:31:57;;;;;;;0.52;0.52;;;17.80;94.00;;;;;;4403275;32;20085;-63
2021/05/10 06:34:22;;;;;;;0.20;0.20;;;17.70;94.00;;;;;;4406262;32;20058;-65
2021/05/10 06:36:48;;;;;;;0.80;0.37;;;17.90;94.10;;;;;;4409234;32;20198;-64
2021/05/10 06:39:13;;;;;;;0.30;0.30;;;18.10;93.80;;;;;;4409894;32;20058;-63
2021/05/10 06:41:39;;;;;;;0.30;0.30;;;18.20;93.80;;;;;;4410523;32;20078;-66
2021/05/10 06:44:04;;;;;;;0.68;0.50;;;18.30;94.70;;;;;;4408693;32;20061;-66
2021/05/10 06:46:30;;;;;;;0.40;0.40;;;18.30;93.80;;;;;;4411109;32;20645;-64
2021/05/10 06:48:55;;;;;;;0.30;0.30;;;18.40;93.50;;;;;;4407649;32;20117;-64
2021/05/10 06:51:21;;;;;;;0.55;0.52;;;18.40;93.60;;;;;;4408395;32;20531;-65
2021/05/10 06:53:46;;;;;;;0.40;0.40;;;18.50;93.50;;;;;;4407510;32;20082;-63
2021/05/10 06:56:13;;;;;;;0.30;0.30;;;18.50;93.30;;;;;;4407501;32;20377;-64
2021/05/10 06:58:38;;;;;;;0.37;0.37;;;18.50;93.50;;;;;;4401137;32;20094;-62
2021/05/10 07:01:04;;;;;;;1.45;0.32;;;18.60;93.50;;;;;;4408882;32;20078;-64
2021/05/10 07:03:29;;;;;;;0.30;0.30;;;18.80;93.40;;;;;;4405353;32;20087;-64
2021/05/10 07:05:54;;;;;;;0.50;0.50;;;18.80;93.40;;;;;;4407576;32;20061;-63
2021/05/10 07:08:20;;;;;;;0.40;0.40;;;18.80;93.00;;;;;;4405484;32;20069;-64
2021/05/10 07:10:48;;;;;;;0.30;0.30;;;18.90;92.60;;;;;;4406234;32;20110;-64
2021/05/10 07:13:14;;;;;;;0.25;0.25;;;18.90;92.50;;;;;;4405671;32;20073;-65
2021/05/10 07:15:39;;;;;;;0.60;0.60;;;19.00;92.30;;;;;;4405188;32;20124;-64
2021/05/10 07:18:07;;;;;;;0.30;0.30;;;19.10;91.90;;;;;;4401945;32;20116;-65
2021/05/10 07:20:34;;;;;;;0.45;0.40;;;19.20;92.10;;;;;;4405793;32;20070;-63
2021/05/10 07:23:00;;;;;;;0.57;0.52;;;19.30;92.10;;;;;;4407661;32;20070;-63
2021/05/10 07:25:27;;;;;;;3.97;2.03;;;19.30;91.50;;;;;;4403729;32;20078;-64
2021/05/10 07:27:53;;;;;;;4.75;0.32;;;19.30;91.50;;;;;;4389665;32;20059;-63
2021/05/10 07:30:19;;;;;;;0.30;0.30;;;19.50;91.30;;;;;;4409162;32;20062;-64
2021/05/10 07:32:44;;;;;;;10.10;0.50;;;19.50;91.30;;;;;;4406580;32;20050;-64
2021/05/10 07:35:10;;;;;;;0.37;0.37;;;19.50;91.00;;;;;;4408649;32;20068;-64
2021/05/10 07:37:36;;;;;;;0.20;0.20;;;19.60;90.60;;;;;;4404850;32;20294;-63
2021/05/10 07:40:05;;;;;;;0.45;0.40;;;19.60;90.80;;;;;;4405031;32;20085;-63
2021/05/10 07:42:30;;;;;;;0.75;0.30;;;19.70;90.80;;;;;;4405885;32;20059;-63
2021/05/10 07:44:56;;;;;;;0.85;0.40;;;19.90;90.60;;;;;;4406428;32;20158;-63
2021/05/10 07:47:21;;;;;;;0.20;0.20;;;20.00;90.60;;;;;;4413309;32;20050;-64
2021/05/10 07:49:47;;;;;;;0.95;0.77;;;20.10;90.50;;;;;;4405901;32;20079;-65
2021/05/10 07:52:12;;;;;;;0.45;0.43;;;20.30;90.40;;;;;;4408899;32;20719;-64
2021/05/10 07:54:37;;;;;;;0.40;0.40;;;20.40;90.00;;;;;;4405920;32;20065;-64
2021/05/10 07:57:03;;;;;;;0.20;0.20;;;20.60;90.30;;;;;;4406350;32;20530;-63
2021/05/10 07:59:29;;;;;;;0.60;0.60;;;20.60;90.00;;;;;;4401204;32;20065;-64
2021/05/10 08:01:57;;;;;;;0.28;0.28;;;20.60;90.00;;;;;;4406855;32;20073;-65
2021/05/10 08:04:22;;;;;;;0.40;0.40;;;20.80;89.00;;;;;;4407206;32;20102;-64
2021/05/10 08:06:48;;;;;;;0.30;0.30;;;20.70;88.40;;;;;;4407853;32;20191;-63
2021/05/10 08:09:13;;;;;;;0.20;0.20;;;20.70;89.70;;;;;;4411342;32;20118;-64
2021/05/10 08:11:39;;;;;;;0.28;0.28;;;20.90;89.70;;;;;;4408454;32;20812;-64
2021/05/10 08:14:06;;;;;;;0.28;0.28;;;21.00;88.80;;;;;;4406372;32;20161;-64
2021/05/10 08:16:32;;;;;;;1.80;0.88;;;21.20;88.60;;;;;;4402992;32;20162;-64
2021/05/10 08:18:57;;;;;;;0.40;0.40;;;21.40;87.90;;;;;;4403342;32;20086;-65
2021/05/10 08:21:22;;;;;;;0.90;0.52;;;21.40;86.30;;;;;;4406612;32;20472;-64
2021/05/10 08:23:48;;;;;;;2.65;0.73;;;21.40;87.60;;;;;;4408290;32;20121;-66
2021/05/10 08:26:13;;;;;;;0.30;0.30;;;21.50;86.30;;;;;;4405480;32;20140;-65
2021/05/10 08:28:39;;;;;;;0.40;0.40;;;21.70;87.10;;;;;;4403162;32;20542;-63
2021/05/10 08:31:04;;;;;;;0.30;0.30;;;21.50;86.30;;;;;;4410571;32;20589;-65
2021/05/10 08:33:30;;;;;;;3.42;1.30;;;21.70;85.70;;;;;;4405789;32;20066;-64
2021/05/10 08:35:56;;;;;;;0.32;0.32;;;21.60;85.30;;;;;;4408361;32;20066;-64
2021/05/10 08:38:22;;;;;;;0.20;0.20;;;21.60;86.40;;;;;;4403175;32;20070;-66
2021/05/10 08:40:50;;;;;;;0.35;0.35;;;21.80;86.80;;;;;;4404102;32;20061;-65
2021/05/10 08:43:18;;;;;;;0.30;0.30;;;21.80;84.80;;;;;;4405023;32;20070;-64
2021/05/10 08:45:46;;;;;;;0.30;0.30;;;22.00;86.80;;;;;;4405715;32;20638;-65
2021/05/10 08:48:12;;;;;;;0.30;0.30;;;22.10;85.30;;;;;;4408973;32;20057;-65
2021/05/10 08:50:37;;;;;;;0.20;0.20;;;22.10;84.00;;;;;;4409617;32;20257;-64
2021/05/10 08:53:04;;;;;;;2.25;0.75;;;22.10;87.30;;;;;;4406963;32;20065;-64
2021/05/10 08:55:30;;;;;;;0.20;0.20;;;22.20;85.30;;;;;;4408995;32;20057;-64
2021/05/10 08:57:56;;;;;;;0.20;0.20;;;22.40;84.30;;;;;;4406750;32;20166;-64
2021/05/10 09:00:22;;;;;;;0.30;0.30;;;22.60;84.10;;;;;;4400715;32;20136;-63
2021/05/10 09:02:47;;;;;;;0.43;0.30;;;22.80;84.60;;;;;;4406869;32;20477;-64
2021/05/10 09:05:19;;;;;;;0.20;0.20;;;22.90;82.70;;;;;;4410773;32;20157;-64
2021/05/10 09:08:05;;;;;;;2.60;0.28;;;23.10;82.10;;;;;;4404574;32;20097;-64
2021/05/10 09:10:31;;;;;;;0.40;0.40;;;23.20;83.00;;;;;;4411914;32;20123;-66
2021/05/10 09:12:56;;;;;;;0.30;0.30;;;23.40;81.30;;;;;;4404316;32;20062;-65
2021/05/10 09:15:32;;;;;;;4.30;0.35;;;23.50;81.50;;;;;;4409215;32;20065;-65
2021/05/10 09:18:01;;;;;;;25.35;2.70;;;23.50;81.00;;;;;;4404833;32;20066;-64
2021/05/10 09:20:30;;;;;;;0.40;0.40;;;23.30;80.40;;;;;;4406797;32;20120;-65
2021/05/10 09:22:59;;;;;;;0.98;0.40;;;23.40;82.70;;;;;;4398742;32;20511;-64
2021/05/10 09:25:30;;;;;;;0.20;0.20;;;23.80;80.60;;;;;;4404046;32;20065;-64
2021/05/10 09:28:17;;;;;;;0.60;0.50;;;23.80;79.80;;;;;;4402356;32;20413;-65
2021/05/10 09:30:45;;;;;;;0.25;0.25;;;24.10;79.70;;;;;;4409061;32;20524;-64
2021/05/10 09:33:22;;;;;;;0.25;0.25;;;24.10;80.80;;;;;;4409098;32;20077;-65
2021/05/10 09:35:48;;;;;;;0.30;0.30;;;24.30;79.40;;;;;;4407258;32;20053;-63
2021/05/10 09:38:18;;;;;;;0.43;0.30;;;24.20;77.60;;;;;;4406485;32;20183;-65
2021/05/10 09:40:47;;;;;;;1.65;1.05;;;24.40;77.10;;;;;;4408051;32;93718;-65
2021/05/10 09:43:16;;;;;;;0.30;0.30;;;24.90;78.90;;;;;;4409930;32;20081;-65
2021/05/10 09:45:46;;;;;;;0.20;0.20;;;24.90;77.50;;;;;;4408748;32;20133;-64
2021/05/10 09:48:15;;;;;;;0.30;0.30;;;24.90;77.60;;;;;;4407781;32;20077;-63
2021/05/10 09:51:01;;;;;;;2.87;1.10;;;24.90;78.20;;;;;;4403723;32;20492;-64
2021/05/10 09:53:38;;;;;;;0.10;0.10;;;25.00;76.80;;;;;;4399382;32;20077;-65
2021/05/10 09:56:08;;;;;;;4.55;1.62;;;24.90;76.00;;;;;;4403084;32;20077;-63
2021/05/10 09:58:49;;;;;;;0.30;0.30;;;25.40;76.80;;;;;;4407813;32;20069;-64
2021/05/10 10:01:15;;;;;;;0.20;0.20;;;25.30;75.40;;;;;;4406847;32;20434;-64
2021/05/10 10:03:43;;;;;;;0.57;0.40;;;25.40;75.70;;;;;;4403329;32;20074;-63
2021/05/10 10:06:11;;;;;;;0.50;0.50;;;25.30;75.40;;;;;;4402568;32;20066;-64
2021/05/10 10:08:38;;;;;;;0.30;0.30;;;25.20;75.50;;;;;;4404762;32;20519;-65
2021/05/10 10:11:07;;;;;;;0.20;0.20;;;25.40;76.00;;;;;;4399924;32;20113;-63
2021/05/10 10:13:32;;;;;;;0.30;0.30;;;25.30;75.10;;;;;;4393908;32;20070;-65
2021/05/10 10:15:59;;;;;;;0.30;0.30;;;25.60;75.40;;;;;;4405236;32;20377;-64
2021/05/10 10:18:26;;;;;;;2.72;0.50;;;26.20;75.60;;;;;;4398718;32;20109;-64
2021/05/10 10:20:54;;;;;;;0.30;0.30;;;26.50;73.40;;;;;;4406309;32;20404;-64
2021/05/10 10:23:22;;;;;;;0.20;0.20;;;26.70;71.70;;;;;;4401658;32;20471;-64
2021/05/10 10:25:51;;;;;;;0.30;0.30;;;26.80;72.40;;;;;;4398710;32;20406;-64
2021/05/10 10:28:19;;;;;;;0.20;0.20;;;26.90;71.30;;;;;;4403606;32;20074;-64
2021/05/10 10:30:48;;;;;;;0.45;0.45;;;27.00;72.90;;;;;;4409236;32;20058;-63
2021/05/10 10:33:24;;;;;;;0.20;0.20;;;27.20;73.60;;;;;;4407284;32;20514;-63
2021/05/10 10:35:51;;;;;;;3.20;0.82;;;27.60;70.00;;;;;;4409930;32;20066;-64
2021/05/10 10:38:26;;;;;;;0.30;0.30;;;27.40;68.50;;;;;;4407356;32;20077;-63
2021/05/10 10:41:19;;;;;;;0.20;0.20;;;27.40;68.20;;;;;;4409696;32;20062;-63
2021/05/10 10:43:47;;;;;;;2.35;0.98;;;27.80;69.60;;;;;;4407078;32;20070;-63
2021/05/10 10:46:22;;;;;;;0.30;0.30;;;28.00;68.40;;;;;;4411061;32;20507;-62
2021/05/10 10:48:49;;;;;;;0.43;0.43;;;28.10;65.80;;;;;;4407339;32;20103;-64
2021/05/10 10:51:15;;;;;;;0.20;0.20;;;28.20;63.30;;;;;;4389770;32;20197;-64
2021/05/10 10:53:43;;;;;;;0.20;0.20;;;28.10;63.20;;;;;;4404500;32;20471;-66
2021/05/10 10:56:08;;;;;;;0.10;0.10;;;28.30;63.10;;;;;;4408160;32;20129;-63
2021/05/10 10:58:34;;;;;;;0.20;0.20;;;28.60;61.10;;;;;;4406100;32;20078;-63
2021/05/10 11:01:09;;;;;;;0.17;0.10;;;29.00;63.40;;;;;;4406120;32;20066;-64
2021/05/10 11:03:36;;;;;;;1.48;0.50;;;29.00;59.20;;;;;;4405714;32;20078;-63
2021/05/10 11:06:01;;;;;;;0.20;0.20;;;28.60;60.20;;;;;;4403264;32;20418;-65
2021/05/10 11:08:48;;;;;;;0.30;0.30;;;28.70;60.50;;;;;;4405482;32;20128;-63
2021/05/10 11:11:35;;;;;;;0.13;0.13;;;29.30;61.80;;;;;;4399041;32;20282;-63
2021/05/10 11:14:01;;;;;;;0.20;0.20;;;29.70;63.10;;;;;;4399907;32;20074;-64
2021/05/10 11:16:48;;;;;;;0.73;0.60;;;30.10;61.90;;;;;;4405285;32;20089;-64
2021/05/10 11:19:34;;;;;;;0.20;0.20;;;30.50;59.20;;;;;;4394059;32;20078;-65
2021/05/10 11:22:22;;;;;;;0.75;0.47;;;30.40;58.60;;;;;;4400399;32;20477;-64
2021/05/10 11:24:47;;;;;;;0.35;0.32;;;30.40;59.10;;;;;;4394881;32;20086;-65
2021/05/10 11:27:31;;;;;;;0.15;0.10;;;30.60;58.80;;;;;;4408278;32;20119;-64
2021/05/10 11:29:57;;;;;;;0.15;0.15;;;30.60;58.50;;;;;;4405626;32;20085;-65
2021/05/10 11:32:25;;;;;;;0.15;0.15;;;30.90;56.10;;;;;;4406233;32;20078;-65
2021/05/10 11:34:51;;;;;;;0.32;0.22;;;30.80;57.70;;;;;;4405173;32;20121;-64
2021/05/10 11:37:26;;;;;;;0.10;0.10;;;30.90;57.60;;;;;;4407386;32;20057;-65
2021/05/10 11:39:56;;;;;;;1.00;0.55;;;31.30;55.50;;;;;;4404203;32;20613;-64
2021/05/10 11:42:27;;;;;;;0.20;0.20;;;31.10;57.80;;;;;;4406840;32;20058;-65
2021/05/10 11:44:55;;;;;;;0.10;0.10;;;31.50;57.00;;;;;;4393942;32;20094;-64
2021/05/10 11:47:21;;;;;;;0.93;0.50;;;32.00;55.40;;;;;;4401082;32;20129;-63
2021/05/10 11:49:51;;;;;;;0.35;0.35;;;32.20;54.70;;;;;;4405768;32;20601;-63
2021/05/10 11:52:23;;;;;;;0.00;0.00;;;32.10;54.40;;;;;;4404125;32;20409;-65
2021/05/10 11:54:51;;;;;;;0.10;0.10;;;31.60;55.10;;;;;;4404746;32;20069;-65
2021/05/10 11:57:22;;;;;;;0.20;0.10;;;31.40;55.90;;;;;;4405796;32;20059;-65
2021/05/10 11:59:51;;;;;;;0.10;0.10;;;31.60;53.80;;;;;;4409356;32;20119;-64
2021/05/10 12:02:27;;;;;;;0.30;0.20;;;31.50;55.10;;;;;;4405926;32;20077;-65
2021/05/10 12:04:55;;;;;;;0.20;0.20;;;31.70;53.70;;;;;;4405179;32;20077;-65
2021/05/10 12:07:22;;;;;;;0.10;0.10;;;31.80;53.20;;;;;;4404435;32;20145;-65
2021/05/10 12:09:56;;;;;;;0.20;0.20;;;32.40;52.80;;;;;;4391264;32;20405;-66
2021/05/10 12:12:27;;;;;;;0.13;0.13;;;33.00;52.10;;;;;;4404412;32;20083;-64
2021/05/10 12:14:56;;;;;;;0.17;0.17;;;33.20;50.60;;;;;;4402937;32;20078;-64
2021/05/10 12:17:26;;;;;;;0.20;0.20;;;33.30;51.20;;;;;;4391898;32;20141;-64
2021/05/10 12:19:52;;;;;;;;;;;33.50;51.40;;;;;;4406388;32;20070;-64
2021/05/10 12:22:23;;;;;;;0.30;0.30;;;34.00;49.70;;;;;;4405737;32;19964;-64
2021/05/10 12:25:08;;;;;;;;;;;34.00;49.00;;;;;;4403832;32;20065;-64
2021/05/10 12:27:37;;;;;;;0.90;0.57;;;34.00;48.70;;;;;;4403801;32;19953;-64
2021/05/10 12:30:11;;;;;;;0.20;0.20;;;33.40;49.00;;;;;;4405123;32;20461;-65
2021/05/10 12:32:38;;;;;;;0.30;0.30;;;33.70;49.30;;;;;;4407918;32;20065;-64
2021/05/10 12:35:04;;;;;;;0.10;0.10;;;34.40;48.90;;;;;;4407838;32;20139;-64
2021/05/10 12:37:30;;;;;;;0.10;0.10;;;34.70;46.80;;;;;;4407662;32;20494;-63
2021/05/10 12:40:13;;;;;;;0.13;0.13;;;34.80;47.70;;;;;;4407997;32;20107;-64
2021/05/10 12:42:39;;;;;;;0.13;0.13;;;34.90;46.30;;;;;;4402975;32;20135;-65
2021/05/10 12:45:08;;;;;;;0.20;0.20;;;34.80;45.80;;;;;;4408921;32;20089;-66
2021/05/10 12:47:50;;;;;;;0.10;0.10;;;34.40;47.30;;;;;;4405532;32;20078;-64
2021/05/10 12:50:40;;;;;;;0.00;0.00;;;34.30;46.90;;;;;;4401967;32;20117;-64